createdAt,value
2022-08-10T00:01:34.546Z,16.57
2022-08-10T00:04:23.036Z,16.53
2022-08-10T00:07:10.333Z,16.45
2022-08-10T00:09:57.453Z,16.42
2022-08-10T00:12:54.587Z,16.52
2022-08-10T00:15:52.528Z,16.50
2022-08-10T00:18:41.741Z,16.30
2022-08-10T00:21:28.871Z,16.43
2022-08-10T00:24:16.481Z,16.39
2022-08-10T00:27:57.925Z,16.35
2022-08-10T00:30:11.913Z,16.29
2022-08-10T00:32:58.940Z,16.43
2022-08-10T00:35:45.891Z,16.35
2022-08-10T00:38:34.782Z,16.26
2022-08-10T00:41:21.751Z,16.18
2022-08-10T00:44:10.821Z,16.11
2022-08-10T00:47:01.129Z,16.11
2022-08-10T00:49:48.724Z,16.06
2022-08-10T00:52:37.269Z,16.08
2022-08-10T00:55:24.762Z,16.26
2022-08-10T00:58:11.893Z,16.13
2022-08-10T01:00:58.984Z,16.20
2022-08-10T01:04:54.272Z,15.99
2022-08-10T01:07:07.733Z,15.91
2022-08-10T01:10:21.753Z,15.81
2022-08-10T01:13:27.093Z,15.66
2022-08-10T01:16:28.301Z,15.67
2022-08-10T01:19:20.979Z,15.90
2022-08-10T01:22:10.817Z,16.02
2022-08-10T01:25:31.830Z,15.92
2022-08-10T01:28:42.428Z,16.08
2022-08-10T01:31:37.985Z,16.08
2022-08-10T01:34:30.189Z,16.15
2022-08-10T01:37:20.286Z,16.09
2022-08-10T01:40:13.503Z,16.04
2022-08-10T01:43:08.893Z,16.10
2022-08-10T01:45:59.661Z,16.11
2022-08-10T01:48:54.724Z,15.90
2022-08-10T01:51:54.578Z,15.86
2022-08-10T01:54:43.911Z,15.49
2022-08-10T01:57:33.327Z,15.31
2022-08-10T02:00:21.111Z,15.26
2022-08-10T02:03:10.903Z,15.04
2022-08-10T02:05:59.682Z,15.24
2022-08-10T02:08:49.587Z,15.41
2022-08-10T02:12:06.142Z,15.41
2022-08-10T02:14:58.930Z,15.74
2022-08-10T02:17:57.699Z,15.58
2022-08-10T02:20:51.532Z,15.64
2022-08-10T02:23:40.812Z,15.53
2022-08-10T02:26:29.587Z,15.38
2022-08-10T02:29:17.699Z,15.65
2022-08-10T02:32:06.957Z,15.44
2022-08-10T02:34:58.471Z,15.34
2022-08-10T02:37:49.040Z,15.31
2022-08-10T02:42:18.826Z,15.20
2022-08-10T02:45:29.466Z,15.22
2022-08-10T02:47:26.883Z,15.25
2022-08-10T02:50:27.769Z,15.26
2022-08-10T02:53:54.312Z,15.05
2022-08-10T02:56:43.542Z,14.82
2022-08-10T02:59:43.533Z,14.72
2022-08-10T03:02:43.600Z,14.84
2022-08-10T03:05:31.125Z,14.84
2022-08-10T03:08:25.920Z,14.90
2022-08-10T03:12:36.177Z,15.06
2022-08-10T03:14:43.186Z,15.00
2022-08-10T03:17:31.024Z,15.04
2022-08-10T03:20:38.341Z,14.97
2022-08-10T03:23:28.072Z,14.82
2022-08-10T03:26:20.323Z,14.86
2022-08-10T03:29:09.484Z,14.92
2022-08-10T03:31:58.296Z,14.86
2022-08-10T03:34:45.625Z,14.66
2022-08-10T03:37:32.721Z,14.66
2022-08-10T03:40:19.817Z,14.89
2022-08-10T03:43:08.838Z,14.93
2022-08-10T03:45:59.805Z,14.62
2022-08-10T03:48:50.214Z,14.73
2022-08-10T03:51:38.022Z,14.88
2022-08-10T03:54:25.697Z,14.89
2022-08-10T03:57:13.580Z,14.91
2022-08-10T04:00:00.958Z,14.80
2022-08-10T04:02:48.634Z,14.51
2022-08-10T04:05:38.115Z,14.23
2022-08-10T04:08:25.886Z,14.31
2022-08-10T04:11:13.518Z,14.41
2022-08-10T04:14:00.514Z,14.35
2022-08-10T04:16:47.566Z,14.45
2022-08-10T04:19:43.196Z,14.51
2022-08-10T04:22:31.089Z,14.62
2022-08-10T04:25:19.783Z,14.39
2022-08-10T04:28:08.919Z,14.28
2022-08-10T04:30:58.875Z,14.21
2022-08-10T04:33:49.488Z,14.29
2022-08-10T04:36:37.227Z,14.35
2022-08-10T04:39:24.782Z,14.45
2022-08-10T04:42:12.187Z,14.67
2022-08-10T04:44:59.889Z,14.75
2022-08-10T04:48:00.886Z,14.71
2022-08-10T04:50:51.322Z,14.98
2022-08-10T04:54:04.247Z,15.19
2022-08-10T04:56:45.966Z,15.13
2022-08-10T04:59:33.141Z,15.36
2022-08-10T05:02:30.668Z,15.41
2022-08-10T05:05:19.236Z,15.49
2022-08-10T05:08:06.219Z,15.72
2022-08-10T05:10:53.618Z,15.62
2022-08-10T05:13:40.557Z,15.92
2022-08-10T05:16:32.478Z,16.15
2022-08-10T05:19:24.795Z,15.96
2022-08-10T05:22:26.620Z,16.55
2022-08-10T05:25:19.549Z,16.65
2022-08-10T05:28:07.073Z,16.91
2022-08-10T05:30:54.125Z,17.11
2022-08-10T05:33:41.076Z,17.86
2022-08-10T05:36:28.869Z,18.79
2022-08-10T05:39:16.301Z,18.79
2022-08-10T05:42:04.027Z,19.00
2022-08-10T05:44:51.937Z,19.05
2022-08-10T05:48:55.530Z,19.06
2022-08-10T05:50:46.548Z,19.52
2022-08-10T05:54:02.804Z,18.88
2022-08-10T05:56:56.346Z,17.90
2022-08-10T06:00:32.896Z,18.17
2022-08-10T06:03:00.425Z,18.16
2022-08-10T06:05:48.090Z,19.20
2022-08-10T06:08:36.227Z,19.22
2022-08-10T06:12:25.271Z,18.92
2022-08-10T06:14:53.038Z,18.75
2022-08-10T06:17:47.024Z,20.23
2022-08-10T06:20:50.502Z,20.47
2022-08-10T06:23:39.338Z,20.10
2022-08-10T06:26:26.418Z,21.10
2022-08-10T06:29:16.780Z,21.53
2022-08-10T06:32:05.849Z,20.27
2022-08-10T06:34:55.841Z,19.91
2022-08-10T06:37:43.541Z,20.74
2022-08-10T06:40:43.309Z,21.28
2022-08-10T06:43:32.386Z,21.96
2022-08-10T06:46:21.994Z,21.30
2022-08-10T06:49:10.510Z,21.42
2022-08-10T06:51:58.474Z,21.20
2022-08-10T06:54:47.050Z,20.76
2022-08-10T06:57:37.432Z,21.22
2022-08-10T07:00:33.485Z,21.42
2022-08-10T07:03:26.270Z,22.71
2022-08-10T07:06:16.051Z,23.00
2022-08-10T07:09:04.543Z,22.25
2022-08-10T07:11:53.510Z,22.72
2022-08-10T07:14:44.588Z,23.66
2022-08-10T07:17:37.245Z,24.39
2022-08-10T07:20:27.430Z,23.14
2022-08-10T07:23:58.743Z,22.87
2022-08-10T07:26:27.124Z,23.41
2022-08-10T07:29:52.867Z,24.02
2022-08-10T07:32:24.790Z,24.35
2022-08-10T07:35:14.959Z,24.10
2022-08-10T07:38:04.089Z,22.67
2022-08-10T07:40:53.986Z,23.96
2022-08-10T07:43:41.992Z,25.71
2022-08-10T07:46:31.126Z,24.75
2022-08-10T07:49:22.358Z,23.28
2022-08-10T07:52:10.984Z,24.62
2022-08-10T07:54:59.330Z,24.92
2022-08-10T07:57:49.693Z,24.53
2022-08-10T08:00:37.923Z,25.01
2022-08-10T08:03:28.932Z,24.85
2022-08-10T08:06:17.494Z,24.56
2022-08-10T08:09:05.493Z,25.21
2022-08-10T08:11:54.600Z,25.40
2022-08-10T08:14:43.806Z,25.26
2022-08-10T08:17:36.225Z,25.91
2022-08-10T08:20:24.773Z,24.04
2022-08-10T08:24:07.658Z,25.86
2022-08-10T08:26:23.482Z,24.41
2022-08-10T08:29:12.859Z,24.64
2022-08-10T08:32:02.905Z,25.68
2022-08-10T08:35:11.970Z,25.14
2022-08-10T08:38:33.027Z,25.19
2022-08-10T08:41:28.723Z,24.58
2022-08-10T08:44:34.745Z,24.42
2022-08-10T08:48:03.890Z,24.24
2022-08-10T08:50:59.502Z,25.34
2022-08-10T08:54:01.126Z,27.11
2022-08-10T08:57:04.638Z,26.56
2022-08-10T09:00:13.550Z,26.64
2022-08-10T09:03:45.624Z,25.17
2022-08-10T09:06:45.069Z,26.38
2022-08-10T09:09:31.945Z,25.45
2022-08-10T09:12:37.478Z,25.49
2022-08-10T09:15:40.803Z,25.12
2022-08-10T09:19:08.422Z,25.10
2022-08-10T09:22:17.284Z,26.14
2022-08-10T09:25:21.772Z,26.42
2022-08-10T09:28:20.087Z,26.76
2022-08-10T09:31:22.378Z,26.57
2022-08-10T09:36:23.501Z,28.16
2022-08-10T09:37:58.641Z,26.00
2022-08-10T09:41:04.995Z,25.69
2022-08-10T09:44:33.957Z,27.28
2022-08-10T09:48:01.130Z,26.50
2022-08-10T09:54:58.058Z,26.57
2022-08-10T09:58:03.876Z,26.83
2022-08-10T10:01:03.083Z,27.62
2022-08-10T10:04:28.492Z,25.71
2022-08-10T10:07:27.675Z,26.54
2022-08-10T10:10:22.680Z,26.86
2022-08-10T10:13:18.755Z,26.42
2022-08-10T10:16:46.818Z,27.07
2022-08-10T10:20:15.524Z,27.05
2022-08-10T10:23:17.513Z,26.05
2022-08-10T10:26:18.732Z,26.70
2022-08-10T10:29:58.018Z,27.33
2022-08-10T10:32:57.182Z,28.32
2022-08-10T10:35:55.914Z,26.94
2022-08-10T10:38:45.339Z,26.82
2022-08-10T10:42:03.356Z,28.00
2022-08-10T10:45:04.646Z,28.61
2022-08-10T10:48:23.745Z,27.60
2022-08-10T10:51:38.390Z,27.56
2022-08-10T10:54:39.392Z,27.03
2022-08-10T10:57:59.925Z,27.15
2022-08-10T11:01:14.147Z,27.41
2022-08-10T11:04:38.662Z,27.73
2022-08-10T11:07:40.862Z,27.83
2022-08-10T11:10:46.486Z,27.24
2022-08-10T11:14:24.453Z,26.23
2022-08-10T11:17:09.351Z,28.16
2022-08-10T11:20:26.986Z,27.35
2022-08-10T11:23:19.139Z,27.20
2022-08-10T11:26:42.229Z,29.31
2022-08-10T11:29:33.110Z,27.00
2022-08-10T11:32:46.285Z,27.66
2022-08-10T11:35:49.381Z,28.03
2022-08-10T11:39:13.358Z,26.86
2022-08-10T11:42:23.196Z,29.10
2022-08-10T11:45:25.521Z,27.33
2022-08-10T11:48:54.546Z,28.65
2022-08-10T11:51:46.317Z,29.27
2022-08-10T11:54:50.832Z,27.01
2022-08-10T11:57:54.169Z,28.59
2022-08-10T12:00:42.612Z,29.94
2022-08-10T12:03:34.754Z,27.90
2022-08-10T12:06:45.445Z,27.47
2022-08-10T12:10:05.725Z,28.64
2022-08-10T12:12:46.291Z,26.98
2022-08-10T12:15:41.085Z,27.00
2022-08-10T12:18:36.534Z,27.36
2022-08-10T12:21:31.847Z,28.11
2022-08-10T12:24:59.274Z,27.81
2022-08-10T12:27:54.936Z,28.48
2022-08-10T12:30:52.050Z,28.72
2022-08-10T12:34:03.732Z,27.35
2022-08-10T12:37:28.830Z,28.52
2022-08-10T12:40:35.007Z,28.43
2022-08-10T12:44:05.362Z,28.17
2022-08-10T12:46:57.198Z,28.28
2022-08-10T12:50:29.199Z,27.88
2022-08-10T12:53:41.610Z,28.24
2022-08-10T12:56:39.402Z,28.00
2022-08-10T12:59:28.782Z,27.88
2022-08-10T13:02:32.986Z,28.54
2022-08-10T13:05:20.455Z,28.91
2022-08-10T13:08:28.147Z,29.08
2022-08-10T13:12:34.120Z,27.93
2022-08-10T13:14:36.963Z,28.46
2022-08-10T13:17:38.638Z,28.77
2022-08-10T13:20:30.895Z,28.50
2022-08-10T13:23:22.310Z,27.13
2022-08-10T13:26:14.648Z,27.27
2022-08-10T13:29:02.473Z,27.94
2022-08-10T13:32:10.187Z,27.84
2022-08-10T13:35:02.588Z,28.53
2022-08-10T13:37:53.238Z,27.32
2022-08-10T13:40:41.010Z,27.30
2022-08-10T13:43:27.962Z,27.77
2022-08-10T13:46:22.400Z,27.78
2022-08-10T13:49:11.309Z,29.00
2022-08-10T13:51:58.968Z,28.70
2022-08-10T13:54:48.180Z,28.22
2022-08-10T13:57:36.976Z,28.33
2022-08-10T14:00:38.729Z,27.79
2022-08-10T14:03:28.303Z,27.48
2022-08-10T14:06:17.422Z,28.25
2022-08-10T14:09:10.241Z,28.00
2022-08-10T14:11:58.993Z,27.67
2022-08-10T14:14:52.988Z,28.22
2022-08-10T14:17:44.788Z,27.19
2022-08-10T14:20:35.151Z,27.57
2022-08-10T14:23:22.454Z,27.40
2022-08-10T14:26:16.020Z,28.13
2022-08-10T14:29:06.676Z,27.55
2022-08-10T14:32:01.562Z,28.35
2022-08-10T14:34:59.460Z,28.71
2022-08-10T14:38:05.611Z,28.11
2022-08-10T14:40:56.966Z,27.37
2022-08-10T14:43:51.338Z,27.14
2022-08-10T14:46:43.332Z,28.45
2022-08-10T14:49:31.699Z,28.65
2022-08-10T14:52:45.299Z,27.52
2022-08-10T14:55:59.139Z,27.40
2022-08-10T14:58:58.704Z,26.97
2022-08-10T15:02:00.743Z,26.90
2022-08-10T15:05:09.089Z,26.38
2022-08-10T15:07:58.940Z,27.84
2022-08-10T15:10:51.134Z,28.46
2022-08-10T15:13:43.793Z,26.74
2022-08-10T15:16:55.643Z,26.74
2022-08-10T15:20:04.146Z,27.02
2022-08-10T15:23:03.391Z,26.73
2022-08-10T15:25:55.026Z,26.84
2022-08-10T15:29:24.242Z,26.88
2022-08-10T15:32:14.369Z,26.73
2022-08-10T15:35:25.692Z,26.55
2022-08-10T15:38:18.336Z,26.06
2022-08-10T15:41:11.172Z,26.03
2022-08-10T15:43:58.533Z,26.27
2022-08-10T15:47:02.454Z,26.27
2022-08-10T15:50:02.728Z,26.09
2022-08-10T15:53:00.559Z,25.61
2022-08-10T15:55:51.715Z,25.55
2022-08-10T15:58:48.864Z,25.78
2022-08-10T16:02:12.900Z,25.36
2022-08-10T16:04:54.499Z,26.18
2022-08-10T16:07:50.333Z,25.76
2022-08-10T16:10:53.442Z,26.32
2022-08-10T16:13:50.473Z,26.12
2022-08-10T16:16:54.273Z,26.03
2022-08-10T16:19:50.858Z,25.83
2022-08-10T16:22:38.284Z,25.73
2022-08-10T16:25:48.587Z,26.09
2022-08-10T16:28:38.460Z,25.54
2022-08-10T16:31:28.033Z,25.75
2022-08-10T16:34:17.133Z,25.93
2022-08-10T16:37:15.568Z,26.00
2022-08-10T16:40:04.610Z,25.94
2022-08-10T16:42:53.364Z,26.08
2022-08-10T16:45:45.900Z,25.47
2022-08-10T16:48:49.559Z,25.22
2022-08-10T16:51:39.766Z,25.09
2022-08-10T16:54:28.151Z,25.40
2022-08-10T16:57:16.323Z,24.93
2022-08-10T17:00:05.917Z,25.31
2022-08-10T17:02:58.206Z,24.86
2022-08-10T17:06:09.698Z,25.14
2022-08-10T17:08:56.098Z,25.16
2022-08-10T17:11:47.964Z,24.99
2022-08-10T17:14:40.301Z,24.96
2022-08-10T17:17:31.222Z,25.26
2022-08-10T17:20:30.374Z,25.21
2022-08-10T17:23:20.915Z,25.29
2022-08-10T17:26:16.733Z,24.67
2022-08-10T17:29:58.446Z,24.55
2022-08-10T17:32:44.818Z,24.63
2022-08-10T17:35:36.807Z,24.60
2022-08-10T17:38:26.261Z,24.61
2022-08-10T17:41:13.891Z,24.76
2022-08-10T17:44:04.512Z,24.54
2022-08-10T17:46:51.951Z,24.55
2022-08-10T17:49:40.553Z,24.49
2022-08-10T17:52:31.867Z,24.35
2022-08-10T17:55:20.196Z,24.22
2022-08-10T17:58:20.062Z,24.13
2022-08-10T18:01:38.788Z,24.43
2022-08-10T18:04:19.531Z,23.93
2022-08-10T18:07:09.074Z,24.22
2022-08-10T18:09:57.385Z,23.87
2022-08-10T18:12:56.416Z,23.70
2022-08-10T18:15:44.504Z,23.66
2022-08-10T18:18:32.439Z,23.48
2022-08-10T18:21:24.480Z,23.34
2022-08-10T18:24:20.318Z,23.27
2022-08-10T18:27:08.462Z,23.02
2022-08-10T18:29:59.912Z,23.06
2022-08-10T18:32:50.242Z,22.81
2022-08-10T18:35:38.675Z,22.67
2022-08-10T18:38:26.573Z,22.54
2022-08-10T18:41:28.566Z,22.47
2022-08-10T18:44:19.142Z,22.46
2022-08-10T18:47:19.910Z,22.23
2022-08-10T18:50:10.356Z,22.19
2022-08-10T18:53:01.688Z,21.95
2022-08-10T18:56:08.646Z,21.95
2022-08-10T18:59:09.065Z,21.80
2022-08-10T19:01:59.017Z,21.77
2022-08-10T19:05:30.942Z,21.55
2022-08-10T19:08:31.968Z,21.48
2022-08-10T19:11:37.944Z,21.17
2022-08-10T19:14:35.024Z,21.18
2022-08-10T19:18:02.824Z,21.26
2022-08-10T19:21:05.060Z,21.15
2022-08-10T19:24:20.062Z,21.21
2022-08-10T19:27:12.781Z,21.04
2022-08-10T19:30:11.605Z,21.02
2022-08-10T19:33:15.304Z,20.77
2022-08-10T19:36:21.048Z,20.82
2022-08-10T19:39:18.250Z,20.81
2022-08-10T19:42:13.698Z,20.67
2022-08-10T19:46:00.794Z,20.63
2022-08-10T19:48:42.575Z,20.49
2022-08-10T19:52:00.853Z,20.16
2022-08-10T19:55:31.060Z,19.86
2022-08-10T19:58:32.513Z,19.84
2022-08-10T20:01:20.378Z,19.93
2022-08-10T20:04:20.459Z,19.86
2022-08-10T20:07:19.719Z,19.75
2022-08-10T20:10:18.664Z,19.57
2022-08-10T20:13:29.824Z,19.29
2022-08-10T20:16:22.136Z,19.31
2022-08-10T20:19:53.531Z,19.33
2022-08-10T20:23:11.360Z,19.17
2022-08-10T20:26:04.829Z,19.21
2022-08-10T20:29:05.671Z,19.32
2022-08-10T20:31:52.700Z,19.30
2022-08-10T20:34:45.708Z,19.31
2022-08-10T20:38:03.892Z,18.86
2022-08-10T20:41:24.211Z,18.59
2022-08-10T20:44:31.540Z,18.52
2022-08-10T20:47:42.517Z,18.56
2022-08-10T20:50:46.928Z,18.58
2022-08-10T20:53:42.439Z,18.32
2022-08-10T20:56:50.242Z,18.14
2022-08-10T21:00:03.973Z,18.31
2022-08-10T21:03:21.340Z,18.39
2022-08-10T21:06:41.445Z,18.55
2022-08-10T21:09:46.919Z,18.88
2022-08-10T21:12:55.691Z,18.61
2022-08-10T21:15:55.628Z,18.14
2022-08-10T21:19:08.688Z,18.04
2022-08-10T21:22:08.752Z,17.88
2022-08-10T21:25:02.183Z,17.95
2022-08-10T21:27:58.520Z,17.88
2022-08-10T21:30:53.248Z,17.80
2022-08-10T21:33:40.161Z,17.91
2022-08-10T21:36:32.356Z,18.09
2022-08-10T21:39:42.612Z,18.06
2022-08-10T21:43:07.714Z,18.24
2022-08-10T21:46:55.021Z,18.06
2022-08-10T21:50:16.114Z,18.04
2022-08-10T21:53:45.130Z,17.98
2022-08-10T21:56:56.382Z,17.76
2022-08-10T22:00:25.172Z,17.83
2022-08-10T22:03:39.832Z,17.94
2022-08-10T22:06:52.388Z,17.88
2022-08-10T22:10:04.367Z,17.91
2022-08-10T22:13:12.961Z,17.74
2022-08-10T22:16:21.361Z,17.50
2022-08-10T22:19:28.388Z,17.66
2022-08-10T22:22:56.181Z,17.80
2022-08-10T22:26:23.650Z,17.81
2022-08-10T22:29:42.493Z,17.80
2022-08-10T22:32:54.633Z,17.76
2022-08-10T22:36:00.176Z,17.81
2022-08-10T22:40:13.208Z,17.71
2022-08-10T22:42:59.653Z,17.68
2022-08-10T22:46:18.593Z,17.59
2022-08-10T22:49:05.706Z,17.58
2022-08-10T22:52:06.701Z,17.47
2022-08-10T22:55:32.176Z,17.31
2022-08-10T22:58:37.906Z,17.20
2022-08-10T23:02:09.019Z,17.11
2022-08-10T23:05:17.419Z,17.02
2022-08-10T23:08:29.513Z,16.76
2022-08-10T23:11:24.936Z,16.76
2022-08-10T23:14:15.026Z,16.67
2022-08-10T23:17:23.418Z,16.76
2022-08-10T23:20:30.759Z,16.49
2022-08-10T23:23:23.997Z,16.66
2022-08-10T23:26:22.162Z,16.92
2022-08-10T23:29:13.552Z,16.70
2022-08-10T23:32:07.312Z,16.56
2022-08-10T23:36:31.576Z,16.47
2022-08-10T23:38:05.911Z,16.19
2022-08-10T23:40:55.651Z,15.90
2022-08-10T23:44:04.053Z,16.06
2022-08-10T23:46:52.200Z,16.16
2022-08-10T23:49:41.374Z,16.05
2022-08-10T23:52:33.987Z,16.08
2022-08-10T23:55:24.438Z,16.20
2022-08-10T23:58:31.610Z,16.30
